Time;durP1;ratioP1;P1;durP2;ratioP2;P2;SDS_P1;SDS_P2;PMS_P1;PMS_P2;Temp;Humidity;BMP_temperature;BMP_pressure;BME280_temperature;BME280_humidity;BME280_pressure;Samples;Min_cycle;Max_cycle;Signal;HPM_P1;HPM_P2
2023/07/07 00:01:50;;;;;;;3.83;2.47;;;;;;;11.38;53.22;101981.13;4987604;28;20157;-77
2023/07/07 00:04:17;;;;;;;3.70;2.00;;;;;;;11.37;53.04;101979.38;4984622;28;20587;-77
2023/07/07 00:06:42;;;;;;;2.33;1.80;;;;;;;11.35;53.10;101981.22;4987360;28;20720;-75
2023/07/07 00:09:08;;;;;;;2.35;1.95;;;;;;;11.29;53.41;101976.13;4988829;28;20040;-76
2023/07/07 00:11:34;;;;;;;4.45;2.50;;;;;;;11.29;53.26;101983.13;4983015;28;20459;-76
2023/07/07 00:13:59;;;;;;;3.38;2.85;;;;;;;11.30;53.50;101977.84;4985024;28;20042;-75
2023/07/07 00:16:28;;;;;;;3.97;2.22;;;;;;;11.28;53.24;101977.00;4984385;28;20431;-76
2023/07/07 00:18:57;;;;;;;2.92;2.47;;;;;;;11.26;53.28;101978.81;4986155;28;20410;-76
2023/07/07 00:21:24;;;;;;;7.43;2.45;;;;;;;11.21;53.55;101972.84;4985622;28;20066;-75
2023/07/07 00:23:56;;;;;;;2.72;2.50;;;;;;;11.05;53.95;101975.81;4986484;28;20037;-76
2023/07/07 00:26:23;;;;;;;4.90;3.28;;;;;;;11.14;53.54;101971.28;4984763;28;20128;-76
2023/07/07 00:28:50;;;;;;;4.68;3.35;;;;;;;11.04;54.05;101975.88;4985860;28;20042;-77
2023/07/07 00:31:17;;;;;;;3.60;2.63;;;;;;;10.99;54.12;101973.34;4984842;28;20448;-76
2023/07/07 00:33:43;;;;;;;3.92;2.25;;;;;;;11.07;53.98;101972.34;4984569;28;20030;-76
2023/07/07 00:36:08;;;;;;;4.30;3.03;;;;;;;11.08;54.27;101982.75;4985503;28;20635;-77
2023/07/07 00:38:34;;;;;;;3.42;2.78;;;;;;;11.19;53.86;101972.00;4991301;28;21873;-77
2023/07/07 00:41:06;;;;;;;3.33;2.45;;;;;;;11.15;53.66;101976.47;4984806;28;20068;-76
2023/07/07 00:43:32;;;;;;;6.63;3.25;;;;;;;11.05;54.26;101983.69;4981084;28;20095;-76
2023/07/07 00:45:59;;;;;;;4.93;3.30;;;;;;;11.08;53.80;101982.75;4986713;28;20038;-77
2023/07/07 00:48:40;;;;;;;7.13;3.90;;;;;;;11.10;54.18;101978.31;4984232;28;20042;-77
2023/07/07 00:51:15;;;;;;;5.72;3.40;;;;;;;11.07;53.77;101983.66;4986418;28;20033;-77
2023/07/07 00:53:45;;;;;;;3.80;3.33;;;;;;;11.08;53.61;101976.66;4984151;28;20046;-77
2023/07/07 00:56:17;;;;;;;5.55;3.33;;;;;;;11.02;53.98;101982.91;4979208;28;20034;-77
2023/07/07 00:58:43;;;;;;;4.75;3.22;;;;;;;11.04;53.59;101978.50;4984327;28;20595;-76
2023/07/07 01:01:14;;;;;;;5.35;3.78;;;;;;;11.08;53.84;101984.50;4985928;28;20084;-76
2023/07/07 01:03:43;;;;;;;5.50;3.67;;;;;;;10.99;53.82;101985.59;4983792;28;20088;-76
2023/07/07 01:06:14;;;;;;;4.38;3.50;;;;;;;10.82;53.95;101980.78;4974234;28;20650;-76
2023/07/07 01:08:42;;;;;;;4.30;3.30;;;;;;;10.74;54.13;101982.66;4977303;28;20022;-77
2023/07/07 01:11:08;;;;;;;4.28;3.42;;;;;;;10.76;54.15;101980.88;4983985;28;20103;-77
2023/07/07 01:13:35;;;;;;;4.35;3.50;;;;;;;10.81;54.25;101984.22;4987171;28;20912;-76
2023/07/07 01:16:18;;;;;;;6.30;4.45;;;;;;;10.70;54.13;101988.84;4985061;28;20033;-76
2023/07/07 01:19:04;;;;;;;4.53;3.63;;;;;;;10.58;54.57;101982.16;5001009;28;20042;-76
2023/07/07 01:21:44;;;;;;;5.25;3.75;;;;;;;10.54;54.57;101983.97;4983544;28;20073;-76
2023/07/07 01:24:18;;;;;;;6.05;4.10;;;;;;;10.51;54.88;101983.19;4985255;28;20077;-76
2023/07/07 01:27:26;;;;;;;5.20;4.18;;;;;;;10.48;54.63;101976.28;4986114;28;20050;-77
2023/07/07 01:30:14;;;;;;;5.32;3.53;;;;;;;10.43;54.77;101975.50;4985223;28;20034;-77
2023/07/07 01:32:42;;;;;;;5.90;4.20;;;;;;;10.42;54.74;101974.66;4963245;28;20042;-77
2023/07/07 01:35:13;;;;;;;3.67;3.25;;;;;;;10.49;54.50;101977.97;4968850;28;20068;-75
2023/07/07 01:37:39;;;;;;;5.38;3.97;;;;;;;10.41;54.66;101972.06;4992485;28;20512;-75
2023/07/07 01:40:05;;;;;;;8.90;4.70;;;;;;;10.33;54.80;101969.63;4985405;28;20061;-75
2023/07/07 01:42:40;;;;;;;5.13;4.05;;;;;;;10.33;55.10;101982.69;4977022;28;20751;-76
2023/07/07 01:45:14;;;;;;;8.15;4.00;;;;;;;10.33;55.23;101974.00;4985647;28;20034;-75
2023/07/07 01:47:50;;;;;;;5.43;3.53;;;;;;;10.35;54.85;101970.44;4983277;28;20073;-74
2023/07/07 01:50:21;;;;;;;8.13;3.83;;;;;;;10.33;54.70;101981.84;4984752;28;20073;-75
2023/07/07 01:52:57;;;;;;;5.53;4.05;;;;;;;10.33;54.71;101977.47;4984152;28;20069;-76
2023/07/07 01:55:37;;;;;;;5.25;3.60;;;;;;;10.30;54.65;101976.66;4993432;28;20707;-76
2023/07/07 01:58:07;;;;;;;6.80;4.03;;;;;;;10.29;54.84;101969.72;4968459;28;20121;-76
2023/07/07 02:00:34;;;;;;;5.43;4.60;;;;;;;10.38;54.48;101969.53;4968251;28;20060;-75
2023/07/07 02:03:00;;;;;;;5.72;3.67;;;;;;;10.41;54.47;101964.22;4985511;28;20038;-79
2023/07/07 02:05:27;;;;;;;5.25;3.00;;;;;;;10.39;54.69;101966.00;4988514;28;20038;-74
2023/07/07 02:07:53;;;;;;;5.47;3.28;;;;;;;10.45;54.42;101963.25;4967281;28;20042;-76
2023/07/07 02:10:19;;;;;;;6.82;3.63;;;;;;;10.45;54.25;101960.63;4964585;28;20111;-77
2023/07/07 02:12:47;;;;;;;5.43;3.83;;;;;;;10.39;54.27;101960.78;4986595;28;20041;-75
2023/07/07 02:15:13;;;;;;;6.45;3.25;;;;;;;10.36;54.26;101966.06;4990245;28;20099;-75
2023/07/07 02:17:39;;;;;;;5.15;3.15;;;;;;;10.30;54.59;101967.06;4985365;28;20814;-76
2023/07/07 02:20:05;;;;;;;5.65;2.95;;;;;;;10.28;54.53;101962.75;4992127;28;20038;-75
2023/07/07 02:22:31;;;;;;;6.95;2.67;;;;;;;10.25;54.73;101960.22;4978725;28;20116;-75
2023/07/07 02:24:56;;;;;;;3.40;2.78;;;;;;;10.21;54.58;101965.53;4990504;28;20057;-75
2023/07/07 02:27:21;;;;;;;5.20;3.22;;;;;;;10.17;54.64;101961.25;4988173;28;20045;-74
2023/07/07 02:29:47;;;;;;;3.83;3.35;;;;;;;10.14;54.98;101957.81;4988501;28;20037;-74
2023/07/07 02:32:14;;;;;;;8.13;3.97;;;;;;;10.13;55.02;101963.97;4972037;28;20111;-74
2023/07/07 02:34:47;;;;;;;5.00;3.17;;;;;;;10.14;55.02;101961.28;4986989;28;20038;-76
2023/07/07 02:37:16;;;;;;;5.63;3.53;;;;;;;10.11;55.03;101961.38;4987887;28;20037;-75
2023/07/07 02:39:43;;;;;;;3.88;3.05;;;;;;;10.13;55.17;101956.97;4986196;28;20522;-76
2023/07/07 02:42:10;;;;;;;3.92;3.40;;;;;;;10.07;55.09;101958.84;4990807;28;20034;-73
2023/07/07 02:44:37;;;;;;;6.28;3.78;;;;;;;10.06;55.18;101963.22;4987655;28;20036;-76
2023/07/07 02:47:02;;;;;;;5.90;3.47;;;;;;;10.02;55.29;101966.78;4974135;28;20037;-76
2023/07/07 02:49:27;;;;;;;5.95;4.15;;;;;;;9.99;55.26;101972.06;4987177;28;20034;-75
2023/07/07 02:51:53;;;;;;;4.13;2.65;;;;;;;10.00;55.05;101965.94;4988293;28;20056;-75
2023/07/07 02:54:18;;;;;;;4.25;2.85;;;;;;;9.96;55.05;101959.06;4987610;28;20041;-77
2023/07/07 02:56:44;;;;;;;3.97;3.15;;;;;;;9.91;55.28;101968.75;4971560;28;20050;-77
2023/07/07 02:59:09;;;;;;;6.40;3.75;;;;;;;9.84;55.14;101969.78;4991245;28;20040;-74
2023/07/07 03:01:35;;;;;;;4.15;3.38;;;;;;;9.83;55.37;101970.66;4958027;28;20566;-73
2023/07/07 03:04:01;;;;;;;3.88;3.20;;;;;;;9.86;55.27;101976.69;4978956;28;20044;-75
2023/07/07 03:06:27;;;;;;;4.60;3.63;;;;;;;9.87;55.36;101970.56;4970575;28;20798;-76
2023/07/07 03:08:54;;;;;;;5.15;3.28;;;;;;;9.99;55.07;101969.44;4976257;28;20034;-77
2023/07/07 03:11:23;;;;;;;3.85;3.40;;;;;;;9.94;54.91;101984.34;4970854;28;20424;-77
2023/07/07 03:13:50;;;;;;;4.93;3.25;;;;;;;9.83;55.18;101981.94;4994086;28;20522;-77
2023/07/07 03:16:32;;;;;;;6.53;3.80;;;;;;;9.75;55.38;101982.06;4974183;28;20036;-75
2023/07/07 03:19:08;;;;;;;5.35;3.85;;;;;;;9.76;55.56;101983.78;4981504;28;20037;-76
2023/07/07 03:21:39;;;;;;;4.38;3.35;;;;;;;9.83;55.50;101981.09;5005341;28;20062;-76
2023/07/07 03:24:21;;;;;;;4.97;3.42;;;;;;;9.92;55.44;101986.13;4988181;28;20041;-76
2023/07/07 03:26:47;;;;;;;3.58;2.90;;;;;;;9.89;55.21;101983.59;4972508;28;20038;-78
2023/07/07 03:29:16;;;;;;;5.45;4.30;;;;;;;9.83;55.33;101983.69;4989291;28;20030;-77
2023/07/07 03:31:43;;;;;;;4.43;3.92;;;;;;;9.83;55.23;101986.31;4986435;28;20046;-76
2023/07/07 03:34:10;;;;;;;3.90;3.35;;;;;;;9.80;55.34;101976.78;4989338;28;20096;-77
2023/07/07 03:36:40;;;;;;;4.90;3.42;;;;;;;9.84;55.20;101978.47;4988916;28;20042;-78
2023/07/07 03:39:06;;;;;;;5.93;2.95;;;;;;;9.92;55.27;101983.53;4972941;28;20084;-76
2023/07/07 03:41:34;;;;;;;3.97;2.72;;;;;;;9.99;55.28;101987.72;4995157;28;20042;-76
2023/07/07 03:44:03;;;;;;;7.82;4.60;;;;;;;9.99;55.45;101985.13;4989946;28;20041;-76
2023/07/07 03:46:32;;;;;;;5.10;4.38;;;;;;;10.02;55.21;101988.53;4984846;28;20034;-76
2023/07/07 03:48:59;;;;;;;5.00;3.33;;;;;;;10.10;55.33;101985.78;4989342;28;20025;-75
2023/07/07 03:51:34;;;;;;;6.72;3.53;;;;;;;10.11;55.11;101992.72;4966567;28;20054;-73
2023/07/07 03:54:01;;;;;;;5.78;4.07;;;;;;;10.14;55.23;101992.66;4991626;28;20038;-75
2023/07/07 03:56:26;;;;;;;6.28;4.10;;;;;;;10.19;55.07;101989.94;4985621;28;20065;-74
2023/07/07 03:58:53;;;;;;;7.38;4.72;;;;;;;10.25;55.04;101991.56;4985613;28;21848;-74
2023/07/07 04:01:18;;;;;;;7.75;3.83;;;;;;;10.28;54.91;101994.13;4987111;28;20018;-74
2023/07/07 04:03:45;;;;;;;6.97;4.65;;;;;;;10.39;54.80;101997.34;4987387;28;21394;-75
2023/07/07 04:06:11;;;;;;;5.57;4.60;;;;;;;10.47;54.56;101998.06;4989252;28;20144;-74
2023/07/07 04:08:36;;;;;;;7.22;4.22;;;;;;;10.51;54.69;101997.09;4983481;28;20113;-76
2023/07/07 04:11:03;;;;;;;5.35;4.35;;;;;;;10.61;54.62;101998.59;4988315;28;20041;-75
2023/07/07 04:13:32;;;;;;;6.10;4.20;;;;;;;10.69;54.58;101997.59;4978620;28;20128;-75
2023/07/07 04:16:04;;;;;;;7.53;4.60;;;;;;;10.75;54.48;101998.31;4988628;28;20029;-76
2023/07/07 04:18:33;;;;;;;5.35;3.85;;;;;;;10.86;54.31;102005.06;4969551;28;20057;-75
2023/07/07 04:21:07;;;;;;;9.93;6.28;;;;;;;10.92;53.99;102013.63;4986386;28;20088;-75
2023/07/07 04:23:39;;;;;;;10.95;5.47;;;;;;;11.03;54.41;102003.78;4972596;28;20145;-74
2023/07/07 04:26:06;;;;;;;9.97;5.93;;;;;;;11.19;54.21;102012.13;4987507;28;20310;-76
2023/07/07 04:28:32;;;;;;;10.18;4.95;;;;;;;11.25;54.28;102011.97;4986670;28;20045;-76
2023/07/07 04:30:58;;;;;;;9.82;5.95;;;;;;;11.42;54.10;102013.31;4972001;28;20124;-74
2023/07/07 04:33:26;;;;;;;10.82;6.60;;;;;;;11.60;54.19;102009.38;4986894;28;20065;-77
2023/07/07 04:35:54;;;;;;;8.57;6.32;;;;;;;11.81;53.84;102006.19;4986640;28;20034;-77
2023/07/07 04:38:21;;;;;;;11.02;6.32;;;;;;;12.03;53.56;102014.31;4980845;28;20302;-77
2023/07/07 04:40:46;;;;;;;10.85;6.75;;;;;;;12.17;52.91;102013.94;4990509;28;20037;-75
2023/07/07 04:43:12;;;;;;;10.98;6.15;;;;;;;12.33;52.36;102021.34;4968345;28;20261;-75
2023/07/07 04:45:37;;;;;;;9.63;6.50;;;;;;;12.49;52.42;102019.97;4966504;28;20863;-76
2023/07/07 04:48:03;;;;;;;9.15;6.15;;;;;;;12.62;52.16;102016.09;4981417;28;20347;-76
2023/07/07 04:50:28;;;;;;;10.85;6.40;;;;;;;12.78;51.74;102016.53;4966395;28;20571;-76
2023/07/07 04:52:54;;;;;;;13.65;6.38;;;;;;;12.89;51.47;102010.91;4965643;28;20153;-76
2023/07/07 04:55:20;;;;;;;11.32;6.57;;;;;;;12.93;51.37;102015.16;4968339;28;20022;-77
2023/07/07 04:57:45;;;;;;;12.68;7.22;;;;;;;13.04;50.85;102020.94;4979287;28;20465;-76
2023/07/07 05:00:12;;;;;;;11.10;6.15;;;;;;;13.15;50.59;102019.75;4987689;28;20579;-75
2023/07/07 05:02:38;;;;;;;9.40;6.10;;;;;;;13.40;50.79;102023.25;4976799;28;20061;-78
2023/07/07 05:05:03;;;;;;;9.10;6.05;;;;;;;13.57;50.31;102014.00;4989008;28;20427;-78
2023/07/07 05:07:29;;;;;;;12.27;7.22;;;;;;;13.91;48.98;102027.63;4985711;28;20045;-76
2023/07/07 05:09:55;;;;;;;9.40;6.35;;;;;;;15.50;46.18;102019.72;4985132;28;20698;-76
2023/07/07 05:12:22;;;;;;;8.85;6.25;;;;;;;17.85;40.37;102020.97;4985551;28;20856;-75
2023/07/07 05:14:47;;;;;;;11.48;6.45;;;;;;;19.28;37.52;102024.50;4985611;28;20059;-74
2023/07/07 05:17:12;;;;;;;10.93;5.32;;;;;;;20.49;35.16;102020.69;4990558;28;20042;-77
2023/07/07 05:19:38;;;;;;;9.05;5.60;;;;;;;21.39;34.36;102026.31;4981859;28;20065;-75
2023/07/07 05:22:04;;;;;;;6.05;4.00;;;;;;;22.20;31.58;102011.84;4986933;28;20034;-75
2023/07/07 05:24:30;;;;;;;6.50;4.65;;;;;;;22.91;31.02;102010.22;4984200;28;20516;-75
2023/07/07 05:26:56;;;;;;;11.20;5.40;;;;;;;22.99;30.42;102015.81;4983096;28;20531;-75
2023/07/07 05:29:22;;;;;;;4.60;4.07;;;;;;;23.69;28.92;102020.25;4984857;28;20038;-75
2023/07/07 05:31:48;;;;;;;7.22;3.75;;;;;;;24.69;28.06;102022.13;4982654;28;20076;-75
2023/07/07 05:34:14;;;;;;;9.32;4.22;;;;;;;25.26;27.08;102018.22;4986644;28;20041;-77
2023/07/07 05:36:40;;;;;;;5.47;4.25;;;;;;;25.57;26.10;102011.09;4982817;28;20120;-76
2023/07/07 05:39:06;;;;;;;11.40;4.50;;;;;;;25.99;27.11;102012.84;4987094;28;20037;-76
2023/07/07 05:41:32;;;;;;;8.50;3.28;;;;;;;26.48;25.44;102019.19;4983673;28;20045;-76
2023/07/07 05:43:58;;;;;;;4.55;3.15;;;;;;;26.97;25.20;102020.06;4988818;28;20600;-77
2023/07/07 05:46:24;;;;;;;7.95;4.28;;;;;;;27.47;24.88;102009.16;4988825;28;20107;-76
2023/07/07 05:48:49;;;;;;;4.88;3.83;;;;;;;27.84;23.60;102015.53;4987214;28;20116;-75
2023/07/07 05:51:17;;;;;;;9.85;4.53;;;;;;;27.35;23.46;102015.66;4990165;28;20065;-76
2023/07/07 05:53:43;;;;;;;4.45;3.65;;;;;;;27.35;24.60;102026.41;4988507;28;20704;-76
2023/07/07 05:56:20;;;;;;;6.85;3.90;;;;;;;27.08;24.60;102030.66;5000690;28;20135;-76
2023/07/07 05:58:46;;;;;;;4.55;3.67;;;;;;;27.08;24.81;102033.34;4980750;28;20029;-75
2023/07/07 06:01:13;;;;;;;5.63;3.95;;;;;;;26.29;25.18;102033.41;4975381;28;20076;-76
2023/07/07 06:03:40;;;;;;;3.90;2.85;;;;;;;27.17;24.98;102030.81;4987825;28;20269;-77
2023/07/07 06:06:09;;;;;;;7.28;3.55;;;;;;;27.86;24.41;102038.56;4975772;28;20030;-77
2023/07/07 06:08:35;;;;;;;8.20;4.68;;;;;;;27.81;22.86;102031.91;4986945;28;20064;-77
2023/07/07 06:11:01;;;;;;;7.15;3.75;;;;;;;28.23;23.06;102036.84;4991264;28;20105;-76
2023/07/07 06:13:28;;;;;;;4.20;3.58;;;;;;;28.32;23.48;102047.53;4989314;28;20034;-77
2023/07/07 06:15:54;;;;;;;7.35;3.42;;;;;;;28.17;22.83;102041.00;4977966;28;20045;-76
2023/07/07 06:18:21;;;;;;;6.60;4.00;;;;;;;28.17;22.96;102046.38;4988313;28;20038;-75
2023/07/07 06:21:00;;;;;;;5.32;4.30;;;;;;;28.70;22.65;102051.00;4996384;28;20073;-76
2023/07/07 06:23:28;;;;;;;4.78;3.35;;;;;;;29.39;22.26;102048.53;4988563;28;20042;-76
2023/07/07 06:25:53;;;;;;;4.32;2.70;;;;;;;29.75;21.63;102045.72;4986858;28;20127;-77
2023/07/07 06:28:19;;;;;;;9.07;4.35;;;;;;;29.51;21.98;102054.50;4989481;28;20038;-77
2023/07/07 06:30:49;;;;;;;4.75;4.03;;;;;;;28.48;22.58;102051.41;5000558;28;20095;-76
2023/07/07 06:33:16;;;;;;;4.00;3.30;;;;;;;28.75;22.86;102054.06;4976085;28;20070;-75
2023/07/07 06:35:43;;;;;;;7.65;4.05;;;;;;;29.00;22.53;102053.44;4992990;28;20034;-74
2023/07/07 06:38:09;;;;;;;5.35;4.13;;;;;;;29.81;21.91;102053.16;4998383;28;20504;-77
2023/07/07 06:40:34;;;;;;;8.38;4.35;;;;;;;29.83;21.45;102059.25;5017352;28;20045;-77
2023/07/07 06:43:03;;;;;;;7.72;3.33;;;;;;;29.04;23.00;102058.34;5018100;28;20041;-75
2023/07/07 06:45:31;;;;;;;5.00;3.72;;;;;;;30.01;21.09;102063.72;5021570;28;20026;-75
2023/07/07 06:47:58;;;;;;;7.30;3.95;;;;;;;30.59;21.32;102062.91;5004531;28;20045;-75
2023/07/07 06:50:28;;;;;;;7.03;3.60;;;;;;;30.23;20.35;102065.84;4988659;28;20061;-74
2023/07/07 06:52:53;;;;;;;5.90;3.60;;;;;;;30.97;20.09;102068.69;4967439;28;20103;-74
2023/07/07 06:55:19;;;;;;;4.82;3.85;;;;;;;30.88;20.83;102072.41;4985945;28;20034;-76
2023/07/07 06:57:45;;;;;;;4.90;3.45;;;;;;;30.04;20.46;102063.38;4980481;28;20046;-76
2023/07/07 07:00:10;;;;;;;5.18;3.17;;;;;;;30.45;20.93;102074.34;4990246;28;20582;-75
2023/07/07 07:02:36;;;;;;;6.20;4.00;;;;;;;30.28;20.96;102079.66;4985623;28;20475;-75
2023/07/07 07:05:02;;;;;;;4.82;3.45;;;;;;;30.53;20.65;102075.19;4969297;28;20041;-74
2023/07/07 07:07:30;;;;;;;7.53;3.00;;;;;;;30.48;20.93;102080.22;4985506;28;20061;-76
2023/07/07 07:09:56;;;;;;;4.68;3.22;;;;;;;30.16;20.92;102068.34;4986070;28;20047;-76
2023/07/07 07:12:21;;;;;;;4.53;3.30;;;;;;;30.66;19.99;102074.72;4987570;28;20038;-77
2023/07/07 07:14:47;;;;;;;8.93;3.35;;;;;;;29.97;20.93;102077.53;4989765;28;20042;-76
2023/07/07 07:17:12;;;;;;;7.85;3.55;;;;;;;28.41;22.69;102077.19;4988291;28;20037;-75
2023/07/07 07:19:38;;;;;;;5.25;3.15;;;;;;;30.71;21.26;102082.31;4984646;28;20030;-77
2023/07/07 07:22:04;;;;;;;3.80;2.35;;;;;;;30.95;19.97;102078.81;4987993;28;20038;-77
2023/07/07 07:24:29;;;;;;;4.22;2.58;;;;;;;31.63;19.63;102083.00;4986622;28;20038;-77
2023/07/07 07:26:55;;;;;;;6.53;2.42;;;;;;;29.88;21.08;102089.25;4969513;28;20033;-77
2023/07/07 07:29:20;;;;;;;6.07;2.13;;;;;;;30.39;20.56;102081.22;4987066;28;20041;-77
2023/07/07 07:31:46;;;;;;;2.50;1.83;;;;;;;28.93;22.06;102086.34;4985561;28;20060;-77
2023/07/07 07:34:30;;;;;;;3.08;2.17;;;;;;;29.72;21.36;102079.22;4990593;28;20048;-77
2023/07/07 07:36:58;;;;;;;4.65;2.17;;;;;;;29.98;21.38;102083.75;4985506;28;20041;-77
2023/07/07 07:39:24;;;;;;;3.95;1.75;;;;;;;30.64;19.99;102084.84;4988171;28;20056;-77
2023/07/07 07:41:54;;;;;;;8.25;2.70;;;;;;;29.83;20.63;102080.81;4985205;28;20041;-77
2023/07/07 07:44:22;;;;;;;4.37;2.50;;;;;;;29.12;21.31;102088.03;4971649;28;20033;-77
2023/07/07 07:46:49;;;;;;;5.63;2.25;;;;;;;30.01;20.71;102083.41;5000190;28;20289;-76
2023/07/07 07:49:15;;;;;;;4.38;1.92;;;;;;;30.93;20.16;102081.66;4978268;28;20052;-77
2023/07/07 07:51:42;;;;;;;2.40;1.70;;;;;;;31.58;18.72;102088.06;4981514;28;20042;-77
2023/07/07 07:54:11;;;;;;;6.55;1.40;;;;;;;33.21;17.24;102091.78;4987576;28;20065;-77
2023/07/07 07:56:37;;;;;;;2.28;1.55;;;;;;;32.76;17.60;102087.22;4969914;28;20061;-78
2023/07/07 07:59:04;;;;;;;3.28;1.80;;;;;;;31.79;18.26;102084.81;4979734;28;20844;-77
2023/07/07 08:01:30;;;;;;;5.90;1.73;;;;;;;30.50;20.12;102093.56;4970148;28;20041;-77
2023/07/07 08:03:56;;;;;;;4.75;2.50;;;;;;;30.31;19.70;102098.22;4966944;28;20054;-77
2023/07/07 08:06:22;;;;;;;4.50;2.05;;;;;;;29.73;20.71;102105.19;4963593;28;20050;-78
2023/07/07 08:08:48;;;;;;;4.10;1.58;;;;;;;30.07;20.14;102098.09;4982269;28;20106;-78
2023/07/07 08:11:18;;;;;;;3.60;2.05;;;;;;;31.12;19.29;102103.97;4988521;28;20037;-77
2023/07/07 08:13:44;;;;;;;5.95;1.88;;;;;;;31.42;19.33;102105.97;5001692;28;20111;-77
2023/07/07 08:16:11;;;;;;;3.83;1.60;;;;;;;29.63;20.83;102111.66;4985443;28;20030;-77
2023/07/07 08:18:40;;;;;;;3.00;1.42;;;;;;;29.78;20.58;102107.38;4982895;28;20036;-77
2023/07/07 08:21:07;;;;;;;5.88;1.48;;;;;;;30.94;19.36;102113.06;4983433;28;20480;-77
2023/07/07 08:23:32;;;;;;;6.05;1.52;;;;;;;32.75;17.51;102105.34;4985976;28;20745;-77
2023/07/07 08:25:59;;;;;;;2.92;1.58;;;;;;;32.47;18.03;102098.75;4985726;28;20030;-77
2023/07/07 08:28:24;;;;;;;3.58;1.33;;;;;;;33.22;17.29;102112.41;4985721;28;20693;-78
2023/07/07 08:30:50;;;;;;;2.25;1.20;;;;;;;32.21;17.31;102108.00;4964855;28;20121;-77
2023/07/07 08:33:16;;;;;;;3.33;1.33;;;;;;;31.47;17.85;102108.19;4982364;28;20037;-78
2023/07/07 08:35:42;;;;;;;1.48;0.70;;;;;;;31.18;18.50;102105.97;4967366;28;20030;-78
2023/07/07 08:38:08;;;;;;;2.92;1.52;;;;;;;32.11;17.95;102112.78;4983667;28;20803;-77
2023/07/07 08:40:51;;;;;;;3.03;1.10;;;;;;;31.46;18.42;102106.47;4961432;28;21361;-78
2023/07/07 08:43:18;;;;;;;1.33;0.80;;;;;;;32.81;16.90;102106.47;4985878;28;20064;-79
2023/07/07 08:45:51;;;;;;;3.17;1.13;;;;;;;33.07;16.10;102114.25;4988622;28;20088;-79
2023/07/07 08:48:52;;;;;;;1.42;0.70;;;;;;;31.27;18.13;102109.53;4987350;28;20052;-78
2023/07/07 08:51:27;;;;;;;2.38;0.80;;;;;;;32.79;16.33;102103.97;4983847;28;20066;-77
2023/07/07 08:54:03;;;;;;;3.85;0.93;;;;;;;32.99;14.86;102114.31;4983798;28;20038;-77
2023/07/07 08:56:44;;;;;;;2.63;0.90;;;;;;;30.22;17.71;102118.09;4983783;28;20049;-77
2023/07/07 08:59:12;;;;;;;2.42;0.75;;;;;;;29.49;18.13;102113.06;4983476;28;20025;-77
2023/07/07 09:01:45;;;;;;;2.15;1.00;;;;;;;30.58;18.14;102118.72;4983910;28;20053;-77
2023/07/07 09:04:33;;;;;;;2.05;1.00;;;;;;;31.60;16.97;102108.50;4984692;28;20044;-76
2023/07/07 09:07:11;;;;;;;5.53;1.08;;;;;;;32.14;17.16;102120.53;4981691;28;20705;-77
2023/07/07 09:10:01;;;;;;;3.72;1.08;;;;;;;32.72;15.34;102119.25;4987813;28;20161;-77
2023/07/07 09:12:38;;;;;;;4.13;0.98;;;;;;;31.93;16.41;102123.78;4983336;28;20049;-77
2023/07/07 09:15:13;;;;;;;4.43;1.50;;;;;;;30.65;18.82;102124.31;4983115;28;20711;-75
2023/07/07 09:17:49;;;;;;;2.25;0.60;;;;;;;30.53;17.63;102114.78;4981213;28;20065;-75
2023/07/07 09:20:18;;;;;;;2.00;0.90;;;;;;;29.31;18.75;102134.66;4991657;28;20557;-77
2023/07/07 09:23:06;;;;;;;1.70;0.70;;;;;;;31.18;15.57;102124.88;4979355;28;20052;-79
2023/07/07 09:25:44;;;;;;;3.92;0.60;;;;;;;31.87;17.11;102129.88;4982499;28;20507;-78
2023/07/07 09:28:12;;;;;;;3.65;0.68;;;;;;;30.89;18.15;102133.44;4981128;28;20038;-76
2023/07/07 09:30:58;;;;;;;2.28;0.77;;;;;;;29.09;19.11;102131.38;4974459;28;20700;-75
2023/07/07 09:33:25;;;;;;;3.35;1.10;;;;;;;28.95;18.73;102137.31;4981712;28;20059;-75
2023/07/07 09:36:01;;;;;;;4.20;0.90;;;;;;;29.54;17.64;102130.44;4983343;28;20026;-76
2023/07/07 09:38:56;;;;;;;3.00;1.10;;;;;;;29.73;19.03;102136.66;4979073;28;20050;-75
2023/07/07 09:41:37;;;;;;;1.63;0.50;;;;;;;29.57;18.69;102135.53;4978006;28;20639;-76
2023/07/07 09:44:29;;;;;;;5.63;0.73;;;;;;;29.77;17.47;102129.94;4981219;28;20037;-77
2023/07/07 09:47:17;;;;;;;5.55;0.80;;;;;;;30.05;18.07;102133.31;4943270;28;20811;-74
2023/07/07 09:49:59;;;;;;;4.63;1.15;;;;;;;28.20;19.18;102137.44;4968318;28;20095;-77
2023/07/07 09:52:42;;;;;;;3.42;1.38;;;;;;;27.99;20.04;102139.44;4983069;28;20045;-75
2023/07/07 09:55:21;;;;;;;3.97;0.60;;;;;;;28.82;19.59;102135.00;4983520;28;20034;-77
2023/07/07 09:57:59;;;;;;;1.50;0.70;;;;;;;28.54;19.26;102139.53;4980234;28;20703;-75
2023/07/07 10:00:28;;;;;;;2.90;0.52;;;;;;;28.42;18.80;102133.50;4981905;28;20038;-74
2023/07/07 10:02:56;;;;;;;5.57;0.70;;;;;;;29.02;19.19;102141.09;4990747;28;20046;-77
2023/07/07 10:05:28;;;;;;;3.80;1.70;;;;;;;27.94;19.88;102139.91;4982699;28;20117;-76
2023/07/07 10:07:56;;;;;;;2.15;0.98;;;;;;;28.04;20.22;102146.09;4981671;28;20038;-77
2023/07/07 10:10:21;;;;;;;2.83;0.68;;;;;;;27.77;19.85;102138.81;4982370;28;20104;-76
2023/07/07 10:12:47;;;;;;;2.72;0.70;;;;;;;28.14;20.29;102143.41;4985685;28;20034;-75
2023/07/07 10:15:55;;;;;;;3.13;0.60;;;;;;;27.68;20.25;102145.06;4987136;28;20036;-75
2023/07/07 10:18:24;;;;;;;6.45;1.33;;;;;;;27.72;20.95;102138.44;4971523;28;20041;-74
2023/07/07 10:20:52;;;;;;;5.30;1.00;;;;;;;27.68;20.02;102140.53;4989799;28;20037;-77
2023/07/07 10:23:17;;;;;;;3.50;0.85;;;;;;;28.51;20.30;102137.16;4992638;28;20095;-74
2023/07/07 10:25:46;;;;;;;2.17;0.90;;;;;;;28.08;19.84;102142.13;4971887;28;20129;-76
2023/07/07 10:28:15;;;;;;;3.60;0.80;;;;;;;28.12;19.79;102142.69;4998069;28;20042;-77
2023/07/07 10:30:41;;;;;;;5.13;1.10;;;;;;;28.31;19.90;102134.56;4985769;28;20030;-76
2023/07/07 10:33:10;;;;;;;3.75;1.08;;;;;;;27.99;20.39;102137.63;4985597;28;20038;-77
2023/07/07 10:35:36;;;;;;;3.65;0.93;;;;;;;27.89;20.19;102132.28;4984499;28;20172;-76
2023/07/07 10:38:03;;;;;;;1.58;0.88;;;;;;;27.53;21.13;102134.72;4985878;28;20049;-75
2023/07/07 10:40:30;;;;;;;3.05;1.08;;;;;;;27.90;20.07;102133.16;4963028;28;20037;-76
2023/07/07 10:42:57;;;;;;;2.38;0.85;;;;;;;28.31;20.01;102134.56;4969257;28;20057;-75
2023/07/07 10:45:23;;;;;;;1.98;0.90;;;;;;;28.47;20.39;102138.44;4976006;28;20041;-76
2023/07/07 10:47:49;;;;;;;3.67;1.10;;;;;;;29.15;19.27;102140.75;4967201;28;20046;-75
2023/07/07 10:50:18;;;;;;;2.60;0.70;;;;;;;28.54;19.98;102134.16;4985603;28;20177;-74
2023/07/07 10:53:00;;;;;;;1.98;0.73;;;;;;;27.61;20.60;102149.25;4985033;28;20170;-75
2023/07/07 10:55:45;;;;;;;2.97;0.98;;;;;;;28.03;21.41;102138.16;4983472;28;20091;-75
2023/07/07 10:58:36;;;;;;;1.48;0.77;;;;;;;28.54;21.34;102136.84;5001254;28;20107;-76
2023/07/07 11:01:24;;;;;;;7.63;0.82;;;;;;;28.39;20.47;102139.19;4989565;28;20057;-76
2023/07/07 11:03:57;;;;;;;2.40;0.68;;;;;;;27.83;20.80;102149.00;5003023;28;20053;-76
2023/07/07 11:06:25;;;;;;;1.90;0.85;;;;;;;28.23;19.92;102153.25;5002568;28;20049;-76
2023/07/07 11:09:22;;;;;;;3.60;0.70;;;;;;;28.04;20.23;102156.00;4987746;28;20448;-76
2023/07/07 11:12:39;;;;;;;2.22;0.98;;;;;;;27.84;21.13;102158.75;4991741;28;20038;-75
2023/07/07 11:15:23;;;;;;;3.67;0.93;;;;;;;28.89;18.37;102148.69;4956669;28;20104;-76
2023/07/07 11:18:14;;;;;;;2.75;0.93;;;;;;;29.11;18.55;102144.69;4992426;28;20042;-75
2023/07/07 11:21:08;;;;;;;3.70;1.10;;;;;;;28.03;19.13;102144.41;5008524;28;20065;-73
2023/07/07 11:23:43;;;;;;;3.17;1.02;;;;;;;28.05;18.79;102146.94;4992112;28;20089;-73
2023/07/07 11:26:27;;;;;;;1.67;0.60;;;;;;;27.76;19.52;102152.41;5012754;28;20101;-74
2023/07/07 11:29:12;;;;;;;2.33;0.73;;;;;;;27.56;20.43;102146.19;5009789;28;20133;-73
2023/07/07 11:32:05;;;;;;;2.53;0.75;;;;;;;27.82;18.89;102144.59;4997039;28;20042;-75
2023/07/07 11:34:42;;;;;;;4.70;1.10;;;;;;;28.01;20.28;102145.53;4988236;28;20034;-74
2023/07/07 11:37:21;;;;;;;2.78;0.90;;;;;;;28.49;19.71;102141.81;4985188;28;20044;-74
2023/07/07 11:40:05;;;;;;;2.03;0.70;;;;;;;29.77;20.17;102140.72;4991983;28;20619;-75